Terminal Aerodrome Forecast
Issued by NWS Central Illinois

Home | Current Version | Previous Version | Text Only | Print | Product List | Glossary On
Versions: 1 2 3 4 5 6 7 8 9 10 11 12 13 14 15 16 17
675
FTUS43 KILX 271133
TAFSPI
TAF
KSPI 271133Z 2712/2812 24006KT P6SM SKC
     FM271600 28013G22KT P6SM SKC
     FM280000 26006KT P6SM SCT250
     FM280900 30005KT P6SM BKN100=

USA.gov is the U.S. government's official web portal to all federal, state and local government web resources and services.